Hauptseite
METAR-TAF:

METAR-TAF

Flughäfen :

Gloucester, England

Breite: 51-54N, Länge: 002-10W, Höhe: 29 m

Beobachtung

Neuester Wetterbericht von vor 5 Stunden und 34 Minuten, um 17:50 UTC
Wind 6 kt aus West
Temperatur 8°C
Luftfeuchtigkeit 66%
Luftdruck 1022 hPa
Sichtweite 10 km oder mehr
Leicht bewölkt in der Höhe von 4500 ft

METAR: EGBJ 231750Z 28006KT 9999 FEW045 08/02 Q1022

Zeit: 23:24 (23:24 UTC)

Prognose

Neuester Wetterbericht von vor 6 Stunden und 27 Minuten, um 16:57 UTC
Gültige Prognose vom 23 um 18 UTC bis 23 um 20 UTC
Wind 8 kt aus West
Sichtweite 10 km oder mehr
Leicht bewölkt in der Höhe von 3000 ft

TAF: EGBJ 231657Z 2318/2320 28008KT 9999 FEW030

Wetterbeobachtungen und Prognosen von mehr als 4000 Flughäfen (METAR und TAF Bericht).

Die verfügbaren Stationen werden durch gelbe und rote Markierungen auf der Karte dargestellt.

Führen Sie die Maus auf sie, um den Namen der Station zu sehen.

Darauf klicken, um die Beobachtung von Wetterbeobachtungen und Prognosen zu sehen.

Um die Karte zu ändern : klicken Sie auf den grünen Tasten mit einem schwarzen Kreuz Zum Vergrößern, auf den grünen Button mit einem Gedankenstrich zu verkleinern, oder auf die grünen Pfeile für benachbarte Karten.


METAR-TAF: